Time;durP1;ratioP1;P1;durP2;ratioP2;P2;SDS_P1;SDS_P2;PMS_P1;PMS_P2;Temp;Humidity;BMP_temperature;BMP_pressure;BME280_temperature;BME280_humidity;BME280_pressure;Samples;Min_cycle;Max_cycle;Signal;HPM_P1;HPM_P2
2022/09/08 00:00:36;;;;;;;13.27;8.50;;;18.50;99.90;;;;;;5157086;27;20057;-72
2022/09/08 00:03:05;;;;;;;14.27;8.38;;;18.30;99.90;;;;;;5155106;27;20081;-72
2022/09/08 00:05:36;;;;;;;9.95;7.70;;;18.40;99.90;;;;;;5176010;27;20102;-72
2022/09/08 00:08:02;;;;;;;10.63;7.93;;;18.40;99.90;;;;;;5174809;27;20034;-72
2022/09/08 00:10:31;;;;;;;9.82;7.97;;;18.40;99.90;;;;;;5174498;27;20436;-72
2022/09/08 00:12:56;;;;;;;10.32;7.80;;;18.40;99.90;;;;;;5175985;27;20041;-72
2022/09/08 00:15:23;;;;;;;11.07;8.20;;;18.40;99.90;;;;;;5164492;27;20503;-72
2022/09/08 00:17:49;;;;;;;11.13;8.30;;;18.30;99.90;;;;;;5164523;27;20046;-71
2022/09/08 00:20:14;;;;;;;10.60;8.65;;;18.30;99.90;;;;;;5174301;27;20030;-72
2022/09/08 00:22:41;;;;;;;11.80;8.93;;;18.30;99.90;;;;;;5166746;27;20054;-72
2022/09/08 00:25:07;;;;;;;15.27;9.48;;;18.30;99.90;;;;;;5175603;27;20059;-72
2022/09/08 00:27:32;;;;;;;14.77;9.65;;;18.20;99.90;;;;;;5174229;27;20049;-72
2022/09/08 00:29:58;;;;;;;14.43;10.20;;;18.20;99.90;;;;;;5150758;27;20470;-72
2022/09/08 00:32:24;;;;;;;14.15;11.82;;;18.10;99.90;;;;;;5136213;27;20050;-72
2022/09/08 00:34:50;;;;;;;14.27;10.57;;;18.10;99.90;;;;;;5154914;27;20059;-72
2022/09/08 00:37:17;;;;;;;12.88;10.40;;;18.40;99.90;;;;;;5154782;27;20506;-70
2022/09/08 00:39:42;;;;;;;13.75;10.90;;;18.10;99.90;;;;;;5154748;27;20039;-70
2022/09/08 00:42:08;;;;;;;15.38;11.50;;;18.10;99.90;;;;;;5154381;27;20509;-70
2022/09/08 00:44:41;;;;;;;14.82;11.65;;;18.10;99.90;;;;;;5149763;27;20034;-71
2022/09/08 00:47:25;;;;;;;14.55;11.32;;;18.10;99.90;;;;;;5136198;27;20509;-70
2022/09/08 00:50:02;;;;;;;15.45;11.85;;;18.00;99.90;;;;;;5155849;27;20118;-72
2022/09/08 00:52:38;;;;;;;15.50;12.38;;;17.90;99.90;;;;;;5154511;27;20126;-72
2022/09/08 00:55:07;;;;;;;17.70;12.55;;;18.00;99.90;;;;;;5154289;27;20125;-70
2022/09/08 00:57:33;;;;;;;13.88;11.85;;;18.00;99.90;;;;;;5152840;27;20078;-73
2022/09/08 00:59:59;;;;;;;15.88;12.65;;;17.90;99.90;;;;;;5164195;27;20059;-70
2022/09/08 01:02:26;;;;;;;19.52;13.55;;;17.90;99.90;;;;;;5142925;27;20045;-70
2022/09/08 01:05:04;;;;;;;14.85;13.00;;;17.90;99.90;;;;;;5163965;27;20034;-70
2022/09/08 01:13:30;;;;;;;18.20;14.75;;;17.90;99.90;;;;;;5151923;27;20042;-71
2022/09/08 01:15:55;;;;;;;18.98;15.68;;;17.80;99.90;;;;;;5139192;27;20051;-71
2022/09/08 01:18:22;;;;;;;20.63;16.45;;;17.90;99.90;;;;;;5155179;27;20498;-70
2022/09/08 01:21:33;;;;;;;19.83;16.17;;;17.80;99.90;;;;;;5158218;27;20038;-71
2022/09/08 01:24:18;;;;;;;20.13;16.80;;;17.80;99.90;;;;;;5174433;27;20371;-71
2022/09/08 01:27:28;;;;;;;21.52;18.10;;;17.80;99.90;;;;;;5152271;27;20050;-70
2022/09/08 01:30:01;;;;;;;20.50;18.17;;;17.80;99.90;;;;;;5149620;27;20149;-71
2022/09/08 01:32:30;;;;;;;22.50;19.40;;;17.70;99.90;;;;;;5174065;27;20046;-71
2022/09/08 01:34:56;;;;;;;23.63;18.65;;;17.70;99.90;;;;;;5125971;27;20042;-71
2022/09/08 01:37:22;;;;;;;22.45;18.98;;;17.90;99.90;;;;;;5135288;27;20080;-70
2022/09/08 01:39:48;;;;;;;27.95;19.85;;;17.70;99.90;;;;;;5153946;27;20079;-71
2022/09/08 01:42:14;;;;;;;22.13;19.48;;;17.70;99.90;;;;;;5134066;27;20102;-71
2022/09/08 01:44:40;;;;;;;23.20;20.05;;;17.70;99.90;;;;;;5156761;27;20050;-70
2022/09/08 01:47:05;;;;;;;24.48;20.60;;;17.80;99.90;;;;;;5151479;27;20047;-70
2022/09/08 01:49:31;;;;;;;23.77;20.88;;;17.80;99.90;;;;;;5135652;27;20043;-71
2022/09/08 01:51:57;;;;;;;28.48;21.90;;;17.90;99.90;;;;;;5144948;27;20031;-71
2022/09/08 01:54:22;;;;;;;24.98;21.65;;;17.80;99.90;;;;;;5154165;27;20042;-71
2022/09/08 01:56:48;;;;;;;25.20;21.38;;;18.10;99.90;;;;;;5153987;27;20041;-71
2022/09/08 01:59:14;;;;;;;29.00;23.25;;;17.80;99.90;;;;;;5154000;27;20026;-71
2022/09/08 02:01:39;;;;;;;26.85;23.50;;;17.70;99.90;;;;;;5153354;27;20046;-71
2022/09/08 02:04:06;;;;;;;26.42;23.63;;;17.70;99.90;;;;;;5151740;27;20037;-71
2022/09/08 02:06:32;;;;;;;30.00;24.73;;;17.70;99.90;;;;;;5133054;27;20053;-70
2022/09/08 02:08:58;;;;;;;28.55;25.17;;;17.70;99.90;;;;;;5131936;27;20121;-70
2022/09/08 02:11:23;;;;;;;29.33;25.95;;;17.70;99.90;;;;;;5173935;27;20042;-71
2022/09/08 02:13:49;;;;;;;29.20;25.85;;;17.70;99.90;;;;;;5158124;27;20486;-71
2022/09/08 02:16:15;;;;;;;28.42;25.17;;;17.70;99.90;;;;;;5157624;27;20048;-71
2022/09/08 02:18:40;;;;;;;31.17;25.95;;;18.10;99.90;;;;;;5160871;27;20030;-71
2022/09/08 02:21:17;;;;;;;31.75;26.00;;;17.70;99.90;;;;;;5168878;27;20039;-70
2022/09/08 02:23:45;;;;;;;30.58;26.15;;;17.70;99.90;;;;;;5158423;27;20043;-71
2022/09/08 02:26:22;;;;;;;31.10;27.13;;;17.70;99.90;;;;;;5157024;27;20077;-71
2022/09/08 02:28:52;;;;;;;32.33;26.92;;;17.80;99.90;;;;;;5155669;27;20041;-70
2022/09/08 02:31:17;;;;;;;32.22;26.02;;;17.80;99.90;;;;;;5157270;27;20092;-71
2022/09/08 02:33:43;;;;;;;31.08;26.88;;;17.90;99.90;;;;;;5158276;27;20062;-71
2022/09/08 02:36:09;;;;;;;30.27;26.30;;;17.80;99.90;;;;;;5138630;27;20061;-71
2022/09/08 02:38:35;;;;;;;33.22;27.15;;;17.80;99.90;;;;;;5157434;27;20050;-71
2022/09/08 02:41:01;;;;;;;32.47;28.08;;;17.80;99.90;;;;;;5156609;27;20091;-72
2022/09/08 02:43:29;;;;;;;30.73;26.23;;;17.90;99.90;;;;;;5155847;27;20125;-71
2022/09/08 02:45:54;;;;;;;33.08;27.77;;;17.90;99.90;;;;;;5155657;27;20043;-71
2022/09/08 02:48:20;;;;;;;29.85;26.52;;;17.90;99.90;;;;;;5156033;27;20060;-71
2022/09/08 02:50:46;;;;;;;31.85;27.27;;;17.90;99.90;;;;;;5163394;27;20039;-71
2022/09/08 02:53:11;;;;;;;33.00;27.25;;;17.90;99.90;;;;;;5143512;27;20038;-71
2022/09/08 02:55:41;;;;;;;31.42;27.55;;;18.00;99.90;;;;;;5156770;27;20051;-71
2022/09/08 02:58:08;;;;;;;33.47;29.38;;;17.90;99.90;;;;;;5164346;27;20046;-71
2022/09/08 03:00:36;;;;;;;32.25;28.73;;;18.10;99.90;;;;;;5157764;27;20069;-72
2022/09/08 03:03:02;;;;;;;34.50;28.60;;;17.90;99.90;;;;;;5138167;27;20049;-71
2022/09/08 03:05:29;;;;;;;33.58;28.45;;;18.10;99.90;;;;;;5138042;27;20041;-72
2022/09/08 03:07:54;;;;;;;31.65;28.15;;;17.90;99.90;;;;;;5158382;27;20043;-71
2022/09/08 03:10:23;;;;;;;35.63;30.02;;;18.50;99.90;;;;;;5123942;27;20050;-72
2022/09/08 03:12:53;;;;;;;37.42;30.92;;;18.50;99.90;;;;;;5166292;27;20499;-72
2022/09/08 03:15:21;;;;;;;33.13;29.15;;;17.90;99.90;;;;;;5137939;27;20086;-71
2022/09/08 03:17:47;;;;;;;34.75;29.63;;;17.90;99.90;;;;;;5173320;27;20438;-71
2022/09/08 03:20:14;;;;;;;36.38;30.95;;;17.90;99.90;;;;;;5175250;27;20397;-72
2022/09/08 03:22:40;;;;;;;34.42;29.10;;;17.90;99.90;;;;;;5175021;27;20171;-71
2022/09/08 03:25:07;;;;;;;36.85;29.27;;;17.90;99.90;;;;;;5156457;27;20035;-72
2022/09/08 03:27:33;;;;;;;35.60;30.08;;;17.90;99.90;;;;;;5156264;27;20065;-72
2022/09/08 03:29:58;;;;;;;34.72;29.75;;;17.90;99.90;;;;;;5156396;27;20058;-72
2022/09/08 03:32:24;;;;;;;35.65;31.08;;;17.90;99.90;;;;;;5155879;27;20077;-71
2022/09/08 03:34:50;;;;;;;34.00;30.17;;;18.10;99.90;;;;;;5164326;27;20175;-72
2022/09/08 03:37:15;;;;;;;35.63;31.73;;;17.90;99.90;;;;;;5156484;27;20443;-72
2022/09/08 03:39:41;;;;;;;35.45;31.52;;;17.90;99.90;;;;;;5167843;27;20043;-72
2022/09/08 03:42:07;;;;;;;34.80;31.10;;;17.90;99.90;;;;;;5121582;27;20117;-72
2022/09/08 03:44:33;;;;;;;38.00;31.27;;;17.90;99.90;;;;;;5155002;27;20050;-71
2022/09/08 03:46:59;;;;;;;36.92;31.20;;;17.80;99.90;;;;;;5155197;27;20079;-71
2022/09/08 03:49:25;;;;;;;37.72;33.17;;;17.80;99.90;;;;;;5145665;27;20038;-71
2022/09/08 03:51:51;;;;;;;40.78;34.35;;;17.80;99.90;;;;;;5176335;27;20041;-72
2022/09/08 03:57:01;;;;;;;41.40;34.28;;;17.80;99.90;;;;;;5155366;27;20050;-72
2022/09/08 03:59:28;;;;;;;42.13;34.80;;;17.80;99.90;;;;;;5155664;27;20094;-71
2022/09/08 04:01:54;;;;;;;37.20;32.72;;;17.80;99.90;;;;;;5155198;27;20059;-72
2022/09/08 04:04:23;;;;;;;39.08;31.92;;;17.80;99.90;;;;;;5154096;27;20492;-72
2022/09/08 04:06:49;;;;;;;40.17;32.78;;;17.90;99.90;;;;;;5154846;27;20043;-72
2022/09/08 04:09:15;;;;;;;39.72;33.65;;;17.80;99.90;;;;;;5156791;27;20046;-72
2022/09/08 04:11:41;;;;;;;41.25;34.58;;;18.00;99.90;;;;;;5145710;27;20035;-72
2022/09/08 04:14:07;;;;;;;39.53;33.15;;;17.90;99.90;;;;;;5136417;27;20183;-72
2022/09/08 04:16:33;;;;;;;40.65;33.08;;;17.90;99.90;;;;;;5152729;27;20061;-72
2022/09/08 04:18:59;;;;;;;41.83;35.97;;;17.80;99.90;;;;;;5174071;27;20030;-72
2022/09/08 04:21:25;;;;;;;39.85;33.85;;;17.80;99.90;;;;;;5173435;27;20094;-71
2022/09/08 04:23:50;;;;;;;42.00;35.05;;;17.90;99.90;;;;;;5156411;27;20037;-72
2022/09/08 04:26:16;;;;;;;43.00;36.20;;;17.90;99.90;;;;;;5174647;27;20093;-72
2022/09/08 04:28:42;;;;;;;42.78;36.20;;;17.90;99.90;;;;;;5174852;27;20073;-71
2022/09/08 04:31:11;;;;;;;42.85;35.88;;;17.90;99.90;;;;;;5174703;27;20130;-72
2022/09/08 04:33:37;;;;;;;42.67;36.67;;;17.90;99.90;;;;;;5141693;27;20379;-71
2022/09/08 04:36:12;;;;;;;43.03;36.53;;;17.90;99.90;;;;;;5154701;27;20035;-71
2022/09/08 04:38:39;;;;;;;44.47;37.60;;;18.00;99.90;;;;;;5154341;27;20043;-71
2022/09/08 04:41:07;;;;;;;44.13;37.42;;;17.90;99.90;;;;;;5157121;27;20037;-71
2022/09/08 04:43:34;;;;;;;45.10;38.25;;;17.90;99.90;;;;;;5174729;27;20042;-71
2022/09/08 04:46:02;;;;;;;45.30;37.75;;;18.10;99.90;;;;;;5163860;27;20049;-71
2022/09/08 04:48:32;;;;;;;45.17;36.55;;;17.90;99.90;;;;;;5118864;27;20046;-72
2022/09/08 04:50:59;;;;;;;43.92;37.97;;;17.90;99.90;;;;;;5151062;27;20348;-71
2022/09/08 04:53:26;;;;;;;45.03;38.05;;;17.90;99.90;;;;;;5155745;27;20042;-72
2022/09/08 04:55:52;;;;;;;44.83;37.72;;;17.90;99.90;;;;;;5156483;27;20050;-72
2022/09/08 04:58:18;;;;;;;45.75;37.58;;;17.90;99.90;;;;;;5174044;27;20034;-72
2022/09/08 05:00:44;;;;;;;44.95;38.78;;;17.80;99.90;;;;;;5131003;27;20042;-72
2022/09/08 05:03:10;;;;;;;44.80;38.08;;;17.90;99.90;;;;;;5139010;27;20084;-71
2022/09/08 05:05:36;;;;;;;45.67;38.03;;;18.20;99.90;;;;;;5175038;27;20077;-72
2022/09/08 05:08:03;;;;;;;45.22;37.65;;;17.90;99.90;;;;;;5174771;27;20034;-72
2022/09/08 05:10:28;;;;;;;44.63;38.65;;;17.90;99.90;;;;;;5154821;27;20034;-71
2022/09/08 05:12:54;;;;;;;46.80;38.85;;;17.90;99.90;;;;;;5160093;27;20547;-71
2022/09/08 05:15:20;;;;;;;43.88;37.42;;;17.90;99.90;;;;;;5154226;27;20527;-72
2022/09/08 05:17:46;;;;;;;44.88;38.53;;;17.90;99.90;;;;;;5136991;27;20042;-71
2022/09/08 05:20:11;;;;;;;46.65;38.97;;;17.90;99.90;;;;;;5172981;27;20030;-72
2022/09/08 05:22:38;;;;;;;48.67;39.25;;;18.00;99.90;;;;;;5172528;27;20141;-72
2022/09/08 05:25:04;;;;;;;46.70;38.85;;;17.90;99.90;;;;;;5154152;27;20035;-72
2022/09/08 05:27:30;;;;;;;45.40;38.72;;;17.90;99.90;;;;;;5153757;27;20035;-72
2022/09/08 05:29:56;;;;;;;49.83;39.15;;;17.90;99.90;;;;;;5159927;27;20038;-72
2022/09/08 05:32:21;;;;;;;48.05;40.90;;;17.90;99.90;;;;;;5173391;27;20051;-72
2022/09/08 05:34:47;;;;;;;49.58;40.15;;;18.00;99.90;;;;;;5174094;27;20054;-72
2022/09/08 05:37:12;;;;;;;45.53;37.83;;;18.00;99.90;;;;;;5174361;27;20141;-72
2022/09/08 05:39:38;;;;;;;46.15;39.95;;;18.00;99.90;;;;;;5174379;27;20038;-72
2022/09/08 05:42:04;;;;;;;45.22;38.30;;;18.00;99.90;;;;;;5155574;27;20421;-71
2022/09/08 05:44:30;;;;;;;47.53;39.72;;;18.00;99.90;;;;;;5159606;27;20102;-72
2022/09/08 05:46:56;;;;;;;51.75;39.95;;;18.00;99.90;;;;;;5178194;27;20451;-72
2022/09/08 05:49:22;;;;;;;47.30;39.53;;;18.10;99.90;;;;;;5176779;27;20084;-72
2022/09/08 05:51:49;;;;;;;45.85;40.40;;;18.10;99.90;;;;;;5142168;27;20039;-72
2022/09/08 05:54:15;;;;;;;45.78;39.22;;;18.10;99.90;;;;;;5144012;27;20567;-72
2022/09/08 05:56:41;;;;;;;46.97;38.58;;;18.10;99.90;;;;;;5157671;27;20133;-72
2022/09/08 05:59:09;;;;;;;45.05;38.20;;;18.10;99.90;;;;;;5157913;27;20034;-72
2022/09/08 06:01:35;;;;;;;46.67;39.30;;;18.10;99.90;;;;;;5175805;27;20046;-72
2022/09/08 06:04:02;;;;;;;46.08;38.45;;;18.10;99.90;;;;;;5141966;27;20031;-72
2022/09/08 06:06:29;;;;;;;57.78;39.05;;;18.10;99.90;;;;;;5175687;27;20034;-71
2022/09/08 06:08:56;;;;;;;45.38;38.17;;;18.10;99.90;;;;;;5167543;27;20046;-71
2022/09/08 06:11:22;;;;;;;45.70;36.95;;;18.20;99.90;;;;;;5157536;27;20045;-72
2022/09/08 06:13:48;;;;;;;43.60;36.55;;;18.20;99.90;;;;;;5158398;27;20061;-71
2022/09/08 06:16:15;;;;;;;43.30;37.40;;;18.20;99.90;;;;;;5147026;27;20046;-73
2022/09/08 06:18:43;;;;;;;42.80;36.70;;;18.20;99.90;;;;;;5133406;27;20078;-73
2022/09/08 06:21:10;;;;;;;41.60;35.22;;;18.30;99.90;;;;;;5175402;27;20042;-73
2022/09/08 06:23:36;;;;;;;43.65;36.13;;;18.20;99.90;;;;;;5177416;27;20078;-70
2022/09/08 06:26:48;;;;;;;42.67;36.45;;;18.30;99.90;;;;;;5176944;27;20375;-69
2022/09/08 06:29:27;;;;;;;41.67;36.85;;;18.20;99.90;;;;;;5158924;27;20050;-70
2022/09/08 06:31:56;;;;;;;43.17;36.22;;;18.30;99.90;;;;;;5176086;27;20065;-72
2022/09/08 06:34:30;;;;;;;41.47;36.92;;;18.30;99.90;;;;;;5162888;27;20121;-70
2022/09/08 06:37:03;;;;;;;43.70;37.88;;;18.30;99.90;;;;;;5155933;27;20440;-71
2022/09/08 06:39:50;;;;;;;45.05;36.67;;;18.30;99.90;;;;;;5152546;27;20133;-70
2022/09/08 06:42:20;;;;;;;42.58;37.33;;;18.30;99.90;;;;;;5137693;27;20043;-70
2022/09/08 06:44:50;;;;;;;46.75;36.17;;;18.30;99.90;;;;;;5148222;27;20454;-70
2022/09/08 06:47:21;;;;;;;43.55;37.92;;;18.40;99.90;;;;;;5161408;27;20125;-70
2022/09/08 06:49:50;;;;;;;44.42;38.80;;;18.40;99.90;;;;;;5135209;27;20381;-70
2022/09/08 06:52:24;;;;;;;51.55;41.58;;;18.70;99.90;;;;;;5116658;27;20043;-71
2022/09/08 06:55:02;;;;;;;49.90;40.83;;;18.30;99.90;;;;;;5131964;27;20051;-71
2022/09/08 06:57:45;;;;;;;50.03;40.83;;;18.20;99.90;;;;;;5156382;27;20405;-71
2022/09/08 07:00:23;;;;;;;52.00;41.35;;;18.20;99.90;;;;;;5138662;27;20046;-71
2022/09/08 07:03:03;;;;;;;48.10;40.20;;;18.10;99.90;;;;;;5167351;27;20092;-71
2022/09/08 07:05:54;;;;;;;49.80;41.03;;;18.10;99.90;;;;;;5156127;27;20486;-71
2022/09/08 07:08:38;;;;;;;52.50;42.30;;;18.10;99.90;;;;;;5157092;27;20503;-71
2022/09/08 07:11:17;;;;;;;52.25;42.95;;;18.10;99.90;;;;;;5158022;27;20402;-71
2022/09/08 07:13:51;;;;;;;54.50;43.65;;;18.10;99.90;;;;;;5145393;27;20043;-71
2022/09/08 07:16:28;;;;;;;53.10;43.47;;;18.20;99.90;;;;;;5156068;27;20566;-71
2022/09/08 07:19:19;;;;;;;51.10;41.05;;;18.10;99.90;;;;;;5153997;27;20035;-71
2022/09/08 07:22:15;;;;;;;55.42;42.85;;;18.00;99.90;;;;;;5155596;27;20047;-71
2022/09/08 07:24:42;;;;;;;56.47;43.70;;;18.00;99.90;;;;;;5156407;27;20070;-71
2022/09/08 07:27:11;;;;;;;55.25;43.88;;;17.90;99.90;;;;;;5155931;27;20372;-71
2022/09/08 07:29:45;;;;;;;52.28;43.58;;;18.00;99.90;;;;;;5132838;27;20431;-71
2022/09/08 07:32:28;;;;;;;53.03;43.97;;;18.00;99.90;;;;;;5155312;27;20520;-71
2022/09/08 07:35:00;;;;;;;52.78;43.63;;;18.00;99.90;;;;;;5163636;27;20031;-71
2022/09/08 07:37:48;;;;;;;59.50;45.25;;;17.90;99.90;;;;;;5148906;27;20495;-71
2022/09/08 07:40:18;;;;;;;56.85;44.58;;;17.90;99.90;;;;;;5155228;27;20534;-71
2022/09/08 07:42:49;;;;;;;57.05;44.63;;;17.90;99.90;;;;;;5155097;27;20038;-71
2022/09/08 07:45:15;;;;;;;54.78;43.65;;;17.90;99.90;;;;;;5155741;27;20047;-71
2022/09/08 07:47:50;;;;;;;56.20;43.55;;;17.90;99.90;;;;;;5137148;27;20406;-71
2022/09/08 07:50:54;;;;;;;53.42;42.70;;;17.90;99.90;;;;;;5149185;27;20046;-71
2022/09/08 07:53:57;;;;;;;51.90;42.13;;;17.90;99.90;;;;;;5168416;27;20031;-72
2022/09/08 07:56:46;;;;;;;51.33;39.85;;;17.90;99.90;;;;;;5153798;27;20131;-71
2022/09/08 07:59:11;;;;;;;50.70;39.53;;;17.90;99.90;;;;;;5155165;27;20043;-71
2022/09/08 08:01:59;;;;;;;50.25;40.83;;;17.80;99.90;;;;;;5155029;27;20482;-71
2022/09/08 08:04:51;;;;;;;52.33;40.80;;;17.80;99.90;;;;;;5155486;27;20126;-71
2022/09/08 08:07:49;;;;;;;52.47;40.08;;;17.70;99.90;;;;;;5155041;27;20051;-71
2022/09/08 08:10:42;;;;;;;50.42;39.38;;;17.70;99.90;;;;;;5098085;27;20143;-71
2022/09/08 08:13:29;;;;;;;52.47;39.80;;;17.70;99.90;;;;;;5155048;27;20125;-71
2022/09/08 08:16:08;;;;;;;48.05;38.03;;;17.60;99.90;;;;;;5119431;27;20126;-72
2022/09/08 08:19:02;;;;;;;49.88;37.78;;;17.70;99.90;;;;;;5143725;27;20246;-71
2022/09/08 08:22:10;;;;;;;46.85;35.78;;;17.60;99.90;;;;;;5134410;27;20379;-72
2022/09/08 08:25:01;;;;;;;48.63;37.13;;;17.60;99.90;;;;;;5120590;27;20059;-71
2022/09/08 08:27:28;;;;;;;48.78;36.30;;;17.50;99.90;;;;;;5134316;27;20031;-72
2022/09/08 08:30:10;;;;;;;45.40;35.92;;;17.50;99.90;;;;;;5166064;27;20038;-71
2022/09/08 08:32:40;;;;;;;44.08;34.55;;;17.50;99.90;;;;;;5154420;27;20065;-71
2022/09/08 08:35:18;;;;;;;45.80;33.40;;;17.50;99.90;;;;;;5153955;27;20390;-71
2022/09/08 08:37:48;;;;;;;42.00;33.03;;;17.50;99.90;;;;;;5129809;27;20074;-71
2022/09/08 08:40:43;;;;;;;40.50;33.03;;;17.50;99.90;;;;;;5175037;27;20141;-72
2022/09/08 08:43:51;;;;;;;42.00;30.88;;;17.50;99.90;;;;;;5171529;27;20050;-73
2022/09/08 08:46:23;;;;;;;43.40;34.40;;;17.60;99.90;;;;;;5145510;27;20039;-71
2022/09/08 08:49:10;;;;;;;38.80;32.35;;;17.60;99.90;;;;;;5154345;27;20078;-71
2022/09/08 08:51:48;;;;;;;42.33;33.28;;;17.60;99.90;;;;;;5140393;27;20050;-71
2022/09/08 08:54:44;;;;;;;39.72;33.10;;;17.70;99.90;;;;;;5127460;27;20070;-71
2022/09/08 08:57:28;;;;;;;39.00;31.75;;;17.80;99.90;;;;;;5162573;27;20042;-71
2022/09/08 09:00:20;;;;;;;37.83;31.00;;;17.80;99.90;;;;;;5142059;27;20416;-71
2022/09/08 09:03:04;;;;;;;40.22;32.85;;;17.80;99.90;;;;;;5175053;27;20046;-70
2022/09/08 09:05:59;;;;;;;39.42;32.60;;;17.90;99.90;;;;;;5156202;27;20038;-72
2022/09/08 09:08:28;;;;;;;38.53;31.40;;;17.90;99.90;;;;;;5156142;27;20045;-72
2022/09/08 09:11:04;;;;;;;35.08;30.80;;;17.90;99.90;;;;;;5157236;27;20039;-73
2022/09/08 09:13:42;;;;;;;35.55;31.55;;;17.90;99.90;;;;;;5133423;27;20114;-71
2022/09/08 09:16:42;;;;;;;38.25;32.22;;;18.00;99.90;;;;;;5135188;27;20043;-71
2022/09/08 09:19:35;;;;;;;40.03;32.25;;;18.00;99.90;;;;;;5153869;27;20078;-71
2022/09/08 09:22:25;;;;;;;38.63;32.40;;;18.00;99.90;;;;;;5153708;27;20402;-71
2022/09/08 09:25:11;;;;;;;36.42;30.38;;;18.00;99.90;;;;;;5135348;27;20103;-71
2022/09/08 09:27:47;;;;;;;37.15;30.75;;;18.00;99.90;;;;;;5151959;27;20088;-71
2022/09/08 09:30:21;;;;;;;38.65;32.30;;;18.00;99.90;;;;;;5153573;27;20793;-71
2022/09/08 09:33:31;;;;;;;33.23;28.80;;;18.00;99.90;;;;;;5142398;27;20172;-71
2022/09/08 09:36:14;;;;;;;32.72;28.25;;;18.10;99.90;;;;;;5057656;27;20528;-71
2022/09/08 09:39:05;;;;;;;31.75;27.35;;;18.00;99.90;;;;;;5145936;27;20487;-72
2022/09/08 09:42:08;;;;;;;32.45;27.65;;;18.00;99.90;;;;;;5114429;28;20082;-72
2022/09/08 09:45:06;;;;;;;30.05;26.40;;;18.10;99.90;;;;;;5133044;28;20433;-71
2022/09/08 09:47:56;;;;;;;32.30;26.30;;;18.10;99.90;;;;;;5131896;28;20496;-71
2022/09/08 09:50:48;;;;;;;32.67;27.05;;;18.10;99.90;;;;;;5135944;27;20047;-78
2022/09/08 09:53:49;;;;;;;29.85;25.20;;;18.20;99.90;;;;;;5142990;27;20039;-73
2022/09/08 09:56:36;;;;;;;29.52;22.75;;;18.20;99.90;;;;;;5048827;28;20465;-72
2022/09/08 09:59:20;;;;;;;23.75;20.50;;;18.20;99.90;;;;;;5150733;27;20073;-72
2022/09/08 10:02:05;;;;;;;23.80;19.40;;;18.30;99.90;;;;;;5173780;27;20042;-72
2022/09/08 10:04:56;;;;;;;20.23;18.03;;;18.30;99.90;;;;;;5155689;27;20099;-72
2022/09/08 10:07:24;;;;;;;19.77;17.20;;;18.30;99.90;;;;;;5173912;27;20367;-72
2022/09/08 10:10:19;;;;;;;18.17;15.15;;;18.20;99.90;;;;;;5174370;27;20086;-72
2022/09/08 10:12:59;;;;;;;17.88;15.35;;;18.30;99.90;;;;;;5155632;27;20109;-72
2022/09/08 10:15:40;;;;;;;15.05;13.27;;;18.30;99.90;;;;;;5138024;27;20099;-72
2022/09/08 10:18:48;;;;;;;15.00;12.68;;;18.30;99.90;;;;;;5173606;27;20042;-72
2022/09/08 10:21:29;;;;;;;12.35;10.85;;;18.30;99.90;;;;;;5143397;27;20122;-72
2022/09/08 10:24:14;;;;;;;12.70;11.35;;;18.20;99.90;;;;;;5137682;27;20042;-76
2022/09/08 10:26:53;;;;;;;13.07;11.40;;;18.20;99.90;;;;;;5151566;27;20038;-76
2022/09/08 10:29:52;;;;;;;14.80;11.40;;;18.20;99.90;;;;;;5149932;27;20031;-76
2022/09/08 10:32:49;;;;;;;14.20;11.55;;;18.20;99.90;;;;;;5097076;27;20047;-76
2022/09/08 10:35:37;;;;;;;11.75;10.55;;;18.20;99.90;;;;;;5136630;27;20039;-77
2022/09/08 10:38:19;;;;;;;9.68;8.35;;;18.20;99.90;;;;;;5168620;27;20047;-78
2022/09/08 10:40:57;;;;;;;10.98;8.45;;;18.20;99.90;;;;;;5153046;27;20427;-77
2022/09/08 10:43:34;;;;;;;10.60;6.80;;;18.20;99.90;;;;;;5153351;27;20053;-77
2022/09/08 10:46:22;;;;;;;7.28;5.40;;;18.20;99.90;;;;;;5152431;27;20046;-78
2022/09/08 10:49:31;;;;;;;10.25;5.72;;;18.20;99.90;;;;;;5150547;27;20399;-78
2022/09/08 10:52:07;;;;;;;7.45;5.00;;;18.20;99.90;;;;;;5153105;27;20045;-77
2022/09/08 10:54:58;;;;;;;6.75;4.72;;;18.20;99.90;;;;;;5148427;27;20046;-76
2022/09/08 10:57:42;;;;;;;6.43;4.45;;;18.20;99.90;;;;;;5133915;27;20635;-77
2022/09/08 11:00:11;;;;;;;7.38;5.32;;;18.20;99.90;;;;;;5150580;27;20039;-76
2022/09/08 11:03:37;;;;;;;5.85;4.00;;;18.30;99.90;;;;;;5133795;27;20088;-77
2022/09/08 11:06:08;;;;;;;5.60;4.13;;;18.20;99.90;;;;;;5106000;27;20658;-76
2022/09/08 11:08:55;;;;;;;6.15;4.05;;;18.10;99.90;;;;;;5134036;27;20064;-76
2022/09/08 11:11:32;;;;;;;8.27;4.35;;;18.00;99.90;;;;;;5133793;27;20050;-76
2022/09/08 11:14:15;;;;;;;6.55;4.47;;;18.00;99.90;;;;;;5151995;27;20103;-76
2022/09/08 11:17:16;;;;;;;7.35;4.57;;;17.90;99.90;;;;;;5135846;27;20527;-76
2022/09/08 11:19:42;;;;;;;5.43;3.70;;;17.90;99.90;;;;;;5153670;27;20077;-69
2022/09/08 11:22:14;;;;;;;5.32;3.60;;;18.00;99.90;;;;;;5166154;27;20038;-69
2022/09/08 11:25:10;;;;;;;5.53;3.03;;;18.00;99.90;;;;;;5156222;27;20367;-69
2022/09/08 11:28:32;;;;;;;5.55;3.25;;;17.90;99.90;;;;;;5155649;27;20049;-69
2022/09/08 11:31:16;;;;;;;4.63;3.30;;;17.90;99.90;;;;;;5086152;28;20633;-68
2022/09/08 11:34:04;;;;;;;4.22;2.78;;;17.90;99.90;;;;;;5149322;27;20494;-69
2022/09/08 11:36:52;;;;;;;5.07;3.22;;;17.90;99.90;;;;;;5156677;27;20131;-69
2022/09/08 11:39:47;;;;;;;4.35;2.85;;;17.90;99.90;;;;;;5135825;27;20054;-68
2022/09/08 11:43:02;;;;;;;4.13;2.50;;;17.90;99.90;;;;;;5163830;27;20050;-70
2022/09/08 11:46:01;;;;;;;3.90;2.10;;;17.90;99.90;;;;;;5070597;28;20456;-70
2022/09/08 11:48:55;;;;;;;5.72;2.00;;;17.90;99.90;;;;;;5070691;28;20179;-70
2022/09/08 11:51:49;;;;;;;5.25;2.40;;;17.80;99.90;;;;;;5131494;27;20407;-70
2022/09/08 11:54:39;;;;;;;4.22;2.10;;;17.80;99.90;;;;;;5133553;27;20176;-69
2022/09/08 11:57:13;;;;;;;5.43;2.60;;;17.70;99.90;;;;;;5134318;27;20073;-70
2022/09/08 12:00:00;;;;;;;6.17;2.50;;;17.70;99.90;;;;;;5115713;27;20097;-70
2022/09/08 12:02:32;;;;;;;4.55;2.30;;;17.70;99.90;;;;;;5115501;27;20341;-70
2022/09/08 12:05:22;;;;;;;4.00;2.38;;;17.70;99.90;;;;;;5116132;27;20368;-69
2022/09/08 12:08:10;;;;;;;4.75;2.60;;;17.70;99.90;;;;;;5134498;27;20397;-70
2022/09/08 12:11:03;;;;;;;5.38;2.78;;;17.70;99.90;;;;;;5134064;27;20047;-70
2022/09/08 12:13:48;;;;;;;4.00;2.20;;;17.60;99.90;;;;;;5133991;27;20051;-70
2022/09/08 12:16:27;;;;;;;4.95;2.40;;;17.60;99.90;;;;;;5134531;27;20444;-70
2022/09/08 12:19:15;;;;;;;5.03;2.40;;;17.60;99.90;;;;;;5133823;27;20494;-70
2022/09/08 12:21:44;;;;;;;4.45;2.22;;;17.70;99.90;;;;;;5133995;27;20039;-70
2022/09/08 12:24:31;;;;;;;4.68;2.38;;;17.60;99.90;;;;;;5132842;27;20126;-71
2022/09/08 12:27:17;;;;;;;4.35;2.40;;;17.70;99.90;;;;;;5134203;27;20360;-70
2022/09/08 12:30:08;;;;;;;5.38;2.60;;;17.70;99.90;;;;;;5134161;27;20189;-70
2022/09/08 12:33:03;;;;;;;5.88;2.70;;;17.70;99.90;;;;;;5132159;27;20131;-70
2022/09/08 12:35:47;;;;;;;4.32;2.50;;;17.70;99.90;;;;;;5133891;27;20087;-70
2022/09/08 12:38:33;;;;;;;5.57;2.60;;;17.70;99.90;;;;;;5115495;27;20054;-70
2022/09/08 12:41:24;;;;;;;4.85;2.60;;;17.70;99.90;;;;;;5115623;27;20495;-70
2022/09/08 12:44:00;;;;;;;4.28;2.60;;;17.80;99.90;;;;;;5133635;27;20062;-71
2022/09/08 12:46:41;;;;;;;5.32;2.78;;;17.80;99.90;;;;;;5133903;27;20118;-71
2022/09/08 12:49:51;;;;;;;4.75;2.67;;;17.80;99.90;;;;;;5134033;27;20046;-70
2022/09/08 12:52:40;;;;;;;4.95;2.45;;;17.80;99.90;;;;;;5133432;27;20340;-71
2022/09/08 12:55:18;;;;;;;6.03;2.38;;;17.90;99.90;;;;;;5122448;27;20047;-70
2022/09/08 12:57:55;;;;;;;5.28;2.40;;;17.90;99.90;;;;;;5133436;27;20043;-70
2022/09/08 13:00:27;;;;;;;7.45;2.72;;;17.80;99.90;;;;;;5149585;27;20054;-70
2022/09/08 13:03:05;;;;;;;5.10;2.58;;;18.10;99.90;;;;;;5133426;27;20051;-70
2022/09/08 13:05:37;;;;;;;7.40;2.60;;;17.80;99.90;;;;;;5133379;27;20042;-71
2022/09/08 13:08:28;;;;;;;5.20;2.75;;;17.80;99.90;;;;;;5133282;27;20055;-71
2022/09/08 13:11:32;;;;;;;5.43;3.10;;;17.90;99.90;;;;;;5133706;27;20413;-70
2022/09/08 13:14:26;;;;;;;6.28;2.83;;;17.80;99.90;;;;;;5086759;27;20055;-70
2022/09/08 13:17:19;;;;;;;6.82;3.15;;;17.80;99.90;;;;;;5114604;27;20039;-71
2022/09/08 13:20:13;;;;;;;5.22;3.25;;;17.80;99.90;;;;;;5133433;27;20377;-71
2022/09/08 13:22:59;;;;;;;3.78;3.00;;;18.00;99.90;;;;;;5132914;27;20085;-70
2022/09/08 13:25:31;;;;;;;;;;;17.90;99.90;;;;;;5133806;27;20111;-70